createdAt,value
2022-10-09T00:01:43.783Z,0.00
2022-10-09T00:11:51.845Z,0.00
2022-10-09T00:21:58.119Z,0.00
2022-10-09T00:32:03.928Z,0.00
2022-10-09T00:42:09.642Z,0.00
2022-10-09T00:52:16.000Z,0.00
2022-10-09T01:02:23.475Z,0.00
2022-10-09T01:12:30.438Z,0.00
2022-10-09T01:22:37.631Z,0.00
2022-10-09T01:32:44.366Z,0.00
2022-10-09T01:42:52.167Z,0.00
2022-10-09T01:52:59.200Z,0.00
2022-10-09T02:03:06.212Z,0.00
2022-10-09T02:13:13.123Z,0.00
2022-10-09T02:23:20.199Z,0.00
2022-10-09T02:33:26.719Z,0.00
2022-10-09T02:43:33.826Z,0.00
2022-10-09T02:53:40.746Z,0.00
2022-10-09T03:03:47.850Z,0.00
2022-10-09T03:13:55.006Z,0.00
2022-10-09T03:24:02.193Z,0.00
2022-10-09T03:34:08.370Z,0.00
2022-10-09T03:44:14.195Z,0.00
2022-10-09T03:54:20.294Z,0.00
2022-10-09T04:04:27.001Z,0.00
2022-10-09T04:14:33.818Z,0.00
2022-10-09T04:24:40.564Z,0.00
2022-10-09T04:34:46.544Z,0.00
2022-10-09T04:44:54.608Z,0.00
2022-10-09T04:55:00.703Z,0.00
2022-10-09T05:05:06.443Z,4.00
2022-10-09T05:15:12.535Z,8.00
2022-10-09T05:25:18.654Z,32.00
2022-10-09T05:35:25.175Z,68.00
2022-10-09T05:45:31.974Z,132.00
2022-10-09T05:55:39.902Z,200.00
2022-10-09T06:05:45.660Z,276.00
2022-10-09T06:15:51.885Z,376.00
2022-10-09T06:25:59.126Z,564.00
2022-10-09T06:36:09.984Z,564.00
2022-10-09T06:46:17.797Z,716.00
2022-10-09T06:56:25.054Z,1188.00
2022-10-09T07:06:30.957Z,1136.00
2022-10-09T07:16:38.601Z,1836.00
2022-10-09T07:26:44.023Z,1460.00
2022-10-09T07:36:51.395Z,2388.00
2022-10-09T07:46:58.441Z,1996.00
2022-10-09T07:57:05.703Z,1964.00
2022-10-09T08:07:13.073Z,1916.00
2022-10-09T08:17:19.869Z,2796.00
2022-10-09T08:27:27.354Z,2584.00
2022-10-09T08:37:34.392Z,2420.00
2022-10-09T08:47:41.876Z,2524.00
2022-10-09T08:57:49.097Z,2552.00
2022-10-09T09:07:56.338Z,2704.00
2022-10-09T09:18:03.628Z,3184.00
2022-10-09T09:28:12.513Z,49728.00
2022-10-09T09:38:20.102Z,49280.00
2022-10-09T09:48:27.356Z,48224.00
2022-10-09T09:58:34.619Z,49024.00
2022-10-09T10:08:42.379Z,47328.00
2022-10-09T10:18:49.635Z,43360.00
2022-10-09T10:28:56.741Z,41216.00
2022-10-09T10:39:03.749Z,37184.00
2022-10-09T10:49:11.015Z,32736.00
2022-10-09T10:59:22.223Z,31584.00
2022-10-09T11:09:29.245Z,28992.00
2022-10-09T11:19:37.921Z,4340.00
2022-10-09T11:29:48.353Z,25536.00
2022-10-09T11:39:55.656Z,22784.00
2022-10-09T11:50:02.636Z,20352.00
2022-10-09T12:00:09.410Z,4832.00
2022-10-09T12:10:16.047Z,4828.00
2022-10-09T12:20:22.825Z,5464.00
2022-10-09T12:30:29.761Z,6272.00
2022-10-09T12:40:36.557Z,6948.00
2022-10-09T12:50:43.513Z,7508.00
2022-10-09T13:00:50.042Z,8040.00
2022-10-09T13:10:57.491Z,8668.00
2022-10-09T13:21:04.544Z,9272.00
2022-10-09T13:31:12.108Z,9704.00
2022-10-09T13:41:19.372Z,10036.00
2022-10-09T13:51:26.545Z,10316.00
2022-10-09T14:01:34.888Z,10608.00
2022-10-09T14:11:41.144Z,11048.00
2022-10-09T14:21:48.003Z,11436.00
2022-10-09T14:31:55.388Z,10896.00
2022-10-09T14:42:02.329Z,10196.00
2022-10-09T14:52:09.052Z,9256.00
2022-10-09T15:02:14.911Z,8780.00
2022-10-09T15:12:20.511Z,6100.00
2022-10-09T15:22:26.373Z,5136.00
2022-10-09T15:32:32.117Z,1536.00
2022-10-09T15:42:38.078Z,688.00
2022-10-09T15:52:43.978Z,440.00
2022-10-09T16:02:51.024Z,344.00
2022-10-09T16:12:58.386Z,256.00
2022-10-09T16:23:05.034Z,160.00
2022-10-09T16:33:13.019Z,80.00
2022-10-09T16:43:20.364Z,28.00
2022-10-09T16:53:27.375Z,8.00
2022-10-09T17:03:34.636Z,0.00
2022-10-09T17:13:41.324Z,0.00
2022-10-09T17:23:48.543Z,0.00
2022-10-09T17:33:55.309Z,0.00
2022-10-09T17:44:02.139Z,0.00
2022-10-09T17:54:11.917Z,0.00
2022-10-09T18:04:18.469Z,0.00
2022-10-09T18:14:25.371Z,0.00
2022-10-09T18:24:32.444Z,0.00
2022-10-09T18:34:43.131Z,0.00
2022-10-09T18:44:51.293Z,0.00
2022-10-09T18:54:57.291Z,0.00
2022-10-09T19:05:03.162Z,0.00
2022-10-09T19:15:12.068Z,0.00
2022-10-09T19:25:18.559Z,0.00
2022-10-09T19:35:25.088Z,0.00
2022-10-09T19:45:32.114Z,0.00
2022-10-09T19:55:38.980Z,0.00
2022-10-09T20:05:46.024Z,0.00
2022-10-09T20:15:52.936Z,0.00
2022-10-09T20:25:59.711Z,16.00
2022-10-09T20:36:06.660Z,0.00
2022-10-09T20:46:13.713Z,0.00
2022-10-09T20:56:20.835Z,0.00
2022-10-09T21:06:27.972Z,0.00
2022-10-09T21:16:35.559Z,0.00
2022-10-09T21:26:42.025Z,0.00
2022-10-09T21:37:16.505Z,0.00
2022-10-09T21:47:01.121Z,0.00
2022-10-09T21:57:08.384Z,0.00
2022-10-09T22:07:15.424Z,0.00
2022-10-09T22:17:22.580Z,0.00
2022-10-09T22:27:29.649Z,0.00
2022-10-09T22:37:36.320Z,0.00
2022-10-09T22:47:43.332Z,0.00
2022-10-09T22:57:50.318Z,0.00
2022-10-09T23:07:57.911Z,0.00
2022-10-09T23:18:04.959Z,0.00
2022-10-09T23:28:12.270Z,0.00
2022-10-09T23:38:19.108Z,0.00
2022-10-09T23:48:26.301Z,0.00
2022-10-09T23:58:33.204Z,0.00
